createdAt,value
2023-04-25T00:01:29.564Z,98659.00
2023-04-25T00:03:59.379Z,98654.00
2023-04-25T00:06:28.896Z,98657.00
2023-04-25T00:08:58.813Z,98665.00
2023-04-25T00:11:28.217Z,98667.00
2023-04-25T00:13:57.742Z,98668.00
2023-04-25T00:16:27.065Z,98664.00
2023-04-25T00:18:56.375Z,98672.00
2023-04-25T00:21:26.212Z,98672.00
2023-04-25T00:23:58.929Z,98668.00
2023-04-25T00:26:29.228Z,98681.00
2023-04-25T00:28:58.491Z,98697.00
2023-04-25T00:31:27.865Z,98694.00
2023-04-25T00:33:57.375Z,98702.00
2023-04-25T00:36:26.806Z,98701.00
2023-04-25T00:38:59.375Z,98703.00
2023-04-25T00:41:29.561Z,98708.00
2023-04-25T00:44:00.148Z,98713.00
2023-04-25T00:46:29.510Z,98713.00
2023-04-25T00:48:58.857Z,98716.00
2023-04-25T00:51:29.151Z,98721.00
2023-04-25T00:53:58.839Z,98718.00
2023-04-25T00:56:28.591Z,98719.00
2023-04-25T00:58:58.579Z,98712.00
2023-04-25T01:01:28.026Z,98718.00
2023-04-25T01:03:58.509Z,98720.00
2023-04-25T01:06:29.311Z,98718.00
2023-04-25T01:08:59.601Z,98731.00
2023-04-25T01:11:28.869Z,98730.00
2023-04-25T01:13:58.207Z,98737.00
2023-04-25T01:16:28.386Z,98739.00
2023-04-25T01:18:58.736Z,98749.00
2023-04-25T01:21:30.089Z,98740.00
2023-04-25T01:23:59.587Z,98751.00
2023-04-25T01:26:29.467Z,98754.00
2023-04-25T01:29:00.332Z,98764.00
2023-04-25T01:31:31.149Z,98762.00
2023-04-25T01:34:00.604Z,98761.00
2023-04-25T01:36:30.989Z,98756.00
2023-04-25T01:39:00.477Z,98763.00
2023-04-25T01:41:31.241Z,98768.00
2023-04-25T01:44:00.820Z,98768.00
2023-04-25T01:46:30.942Z,98765.00
2023-04-25T01:49:00.263Z,98774.00
2023-04-25T01:51:29.860Z,98774.00
2023-04-25T01:54:01.086Z,98773.00
2023-04-25T01:56:35.262Z,98764.00
2023-04-25T01:59:05.625Z,98773.00
2023-04-25T02:01:35.568Z,98770.00
2023-04-25T02:04:05.148Z,98765.00
2023-04-25T02:06:34.620Z,98760.00
2023-04-25T02:09:03.997Z,98765.00
2023-04-25T02:11:33.323Z,98770.00
2023-04-25T02:14:02.602Z,98766.00
2023-04-25T02:16:32.775Z,98776.00
2023-04-25T02:19:02.135Z,98769.00
2023-04-25T02:21:32.426Z,98770.00
2023-04-25T02:24:01.994Z,98783.00
2023-04-25T02:26:32.076Z,98779.00
2023-04-25T02:29:01.841Z,98777.00
2023-04-25T02:31:31.278Z,98784.00
2023-04-25T02:34:00.617Z,98786.00
2023-04-25T02:36:32.240Z,98794.00
2023-04-25T02:39:02.279Z,98786.00
2023-04-25T02:41:31.770Z,98794.00
2023-04-25T02:44:02.849Z,98797.00
2023-04-25T02:46:38.843Z,98791.00
2023-04-25T02:49:14.157Z,98796.00
2023-04-25T02:51:43.498Z,98792.00
2023-04-25T02:54:12.822Z,98779.00
2023-04-25T02:56:44.726Z,98777.00
2023-04-25T02:59:14.055Z,98774.00
2023-04-25T03:01:43.473Z,98764.00
2023-04-25T03:04:12.756Z,98761.00
2023-04-25T03:06:42.421Z,98761.00
2023-04-25T03:09:11.824Z,98761.00
2023-04-25T03:11:42.389Z,98758.00
2023-04-25T03:14:12.040Z,98756.00
2023-04-25T03:16:41.652Z,98747.00
2023-04-25T03:19:10.971Z,98741.00
2023-04-25T03:21:40.643Z,98738.00
2023-04-25T03:24:10.210Z,98733.00
2023-04-25T03:26:39.522Z,98728.00
2023-04-25T03:29:08.836Z,98725.00
2023-04-25T03:31:38.183Z,98719.00
2023-04-25T03:34:07.496Z,98716.00
2023-04-25T03:36:36.774Z,98716.00
2023-04-25T03:39:06.141Z,98717.00
2023-04-25T03:41:35.449Z,98714.00
2023-04-25T03:44:04.794Z,98718.00
2023-04-25T03:46:34.157Z,98713.00
2023-04-25T03:49:03.577Z,98710.00
2023-04-25T03:51:33.134Z,98709.00
2023-04-25T03:54:02.527Z,98698.00
2023-04-25T03:56:32.138Z,98695.00
2023-04-25T03:59:01.440Z,98698.00
2023-04-25T04:01:31.275Z,98702.00
2023-04-25T04:04:00.726Z,98689.00
2023-04-25T04:06:30.669Z,98684.00
2023-04-25T04:09:00.026Z,98689.00
2023-04-25T04:11:29.231Z,98682.00
2023-04-25T04:13:58.403Z,98684.00
2023-04-25T04:16:28.383Z,98682.00
2023-04-25T04:18:57.618Z,98677.00
2023-04-25T04:21:29.460Z,98671.00
2023-04-25T04:23:59.684Z,98670.00
2023-04-25T04:26:29.621Z,98673.00
2023-04-25T04:29:01.250Z,98670.00
2023-04-25T04:31:32.058Z,98668.00
2023-04-25T04:34:01.322Z,98662.00
2023-04-25T04:36:30.493Z,98660.00
2023-04-25T04:38:59.714Z,98665.00
2023-04-25T04:41:28.902Z,98656.00
2023-04-25T04:43:58.165Z,98657.00
2023-04-25T04:46:27.351Z,98663.00
2023-04-25T04:48:58.303Z,98657.00
2023-04-25T04:51:27.592Z,98656.00
2023-04-25T04:54:00.289Z,98656.00
2023-04-25T04:56:30.132Z,98656.00
2023-04-25T04:59:00.053Z,98656.00
2023-04-25T05:01:31.034Z,98650.00
2023-04-25T05:04:02.453Z,98642.00
2023-04-25T05:06:33.167Z,98637.00
2023-04-25T05:09:02.829Z,98632.00
2023-04-25T05:11:32.221Z,98621.00
2023-04-25T05:14:01.494Z,98623.00
2023-04-25T05:16:30.679Z,98613.00
2023-04-25T05:18:59.985Z,98610.00
2023-04-25T05:21:29.588Z,98608.00
2023-04-25T05:23:58.915Z,98608.00
2023-04-25T05:26:28.113Z,98603.00
2023-04-25T05:28:57.315Z,98597.00
2023-04-25T05:31:26.714Z,98594.00
2023-04-25T05:33:56.034Z,98590.00
2023-04-25T05:36:25.206Z,98590.00
2023-04-25T05:38:54.514Z,98588.00
2023-04-25T05:41:23.785Z,98580.00
2023-04-25T05:43:54.672Z,98582.00
2023-04-25T05:46:25.613Z,98577.00
2023-04-25T05:48:54.863Z,98572.00
2023-04-25T05:51:24.083Z,98572.00
2023-04-25T05:53:53.689Z,98562.00
2023-04-25T05:56:22.975Z,98557.00
2023-04-25T05:58:52.223Z,98562.00
2023-04-25T06:01:21.441Z,98552.00
2023-04-25T06:03:51.626Z,98551.00
2023-04-25T06:06:21.665Z,98552.00
2023-04-25T06:08:50.844Z,98548.00
2023-04-25T06:11:20.194Z,98547.00
2023-04-25T06:13:49.813Z,98540.00
2023-04-25T06:16:19.181Z,98536.00
2023-04-25T06:18:48.390Z,98534.00
2023-04-25T06:21:18.068Z,98522.00
2023-04-25T06:23:47.643Z,98516.00
2023-04-25T06:26:16.831Z,98518.00
2023-04-25T06:28:46.039Z,98511.00
2023-04-25T06:31:15.558Z,98505.00
2023-04-25T06:33:44.777Z,98503.00
2023-04-25T06:36:13.949Z,98494.00
2023-04-25T06:38:43.371Z,98493.00
2023-04-25T06:41:12.546Z,98479.00
2023-04-25T06:43:41.837Z,98482.00
2023-04-25T06:46:11.429Z,98480.00
2023-04-25T06:48:40.658Z,98478.00
2023-04-25T06:51:09.879Z,98477.00
2023-04-25T06:53:39.234Z,98466.00
2023-04-25T06:56:08.728Z,98450.00
2023-04-25T06:58:37.868Z,98450.00
2023-04-25T07:01:07.624Z,98442.00
2023-04-25T07:03:37.239Z,98429.00
2023-04-25T07:06:07.221Z,98436.00
2023-04-25T07:08:36.500Z,98429.00
2023-04-25T07:11:05.844Z,98415.00
2023-04-25T07:13:35.047Z,98421.00
2023-04-25T07:16:05.194Z,98416.00
2023-04-25T07:18:34.509Z,98412.00
2023-04-25T07:21:03.797Z,98404.00
2023-04-25T07:23:33.052Z,98400.00
2023-04-25T07:26:02.244Z,98399.00
2023-04-25T07:28:31.518Z,98404.00
2023-04-25T07:31:00.773Z,98387.00
2023-04-25T07:33:30.537Z,98376.00
2023-04-25T07:35:59.998Z,98378.00
2023-04-25T07:38:29.793Z,98380.00
2023-04-25T07:40:58.988Z,98372.00
2023-04-25T07:43:28.188Z,98374.00
2023-04-25T07:45:59.059Z,98369.00
2023-04-25T07:48:28.370Z,98373.00
2023-04-25T07:50:57.560Z,98374.00
2023-04-25T07:53:26.823Z,98367.00
2023-04-25T07:55:56.038Z,98361.00
2023-04-25T07:58:25.253Z,98365.00
2023-04-25T08:00:54.523Z,98363.00
2023-04-25T08:03:24.073Z,98363.00
2023-04-25T08:05:54.480Z,98357.00
2023-04-25T08:08:23.842Z,98356.00
2023-04-25T08:10:53.177Z,98353.00
2023-04-25T08:13:22.711Z,98350.00
2023-04-25T08:15:52.050Z,98354.00
2023-04-25T08:18:21.850Z,98350.00
2023-04-25T08:20:51.125Z,98339.00
2023-04-25T08:23:20.603Z,98342.00
2023-04-25T08:25:49.822Z,98334.00
2023-04-25T08:28:18.976Z,98335.00
2023-04-25T08:30:48.186Z,98325.00
2023-04-25T08:33:17.415Z,98319.00
2023-04-25T08:35:47.922Z,98321.00
2023-04-25T08:38:17.635Z,98312.00
2023-04-25T08:40:51.112Z,98308.00
2023-04-25T08:43:22.881Z,98291.00
2023-04-25T08:45:53.593Z,98289.00
2023-04-25T08:48:25.815Z,98283.00
2023-04-25T08:50:58.560Z,98275.00
2023-04-25T08:53:36.366Z,98272.00
2023-04-25T08:56:05.835Z,98280.00
2023-04-25T08:58:35.591Z,98275.00
2023-04-25T09:01:05.981Z,98272.00
2023-04-25T09:03:35.919Z,98258.00
2023-04-25T09:06:06.931Z,98257.00
2023-04-25T09:08:36.930Z,98248.00
2023-04-25T09:11:06.259Z,98254.00
2023-04-25T09:13:35.534Z,98260.00
2023-04-25T09:16:04.859Z,98247.00
2023-04-25T09:18:36.367Z,98245.00
2023-04-25T09:21:14.288Z,98235.00
2023-04-25T09:23:50.449Z,98227.00
2023-04-25T09:26:23.520Z,98223.00
2023-04-25T09:29:10.049Z,98233.00
2023-04-25T09:31:39.606Z,98239.00
2023-04-25T09:34:08.913Z,98238.00
2023-04-25T09:36:38.113Z,98236.00
2023-04-25T09:39:19.572Z,98239.00
2023-04-25T09:41:48.900Z,98244.00
2023-04-25T09:44:25.354Z,98243.00
2023-04-25T09:46:55.781Z,98240.00
2023-04-25T09:49:25.493Z,98243.00
2023-04-25T09:52:02.339Z,98234.00
2023-04-25T09:54:31.516Z,98241.00
2023-04-25T09:57:13.622Z,98235.00
2023-04-25T09:59:48.890Z,98234.00
2023-04-25T10:02:27.982Z,98236.00
2023-04-25T10:04:58.725Z,98237.00
2023-04-25T10:07:32.813Z,98230.00
2023-04-25T10:10:06.004Z,98235.00
2023-04-25T10:12:36.659Z,98233.00
2023-04-25T10:15:06.921Z,98234.00
2023-04-25T10:17:37.535Z,98239.00
2023-04-25T10:20:12.575Z,98227.00
2023-04-25T10:22:50.075Z,98227.00
2023-04-25T10:25:19.800Z,98223.00
2023-04-25T10:27:49.326Z,98226.00
2023-04-25T10:30:18.671Z,98239.00
2023-04-25T10:32:50.227Z,98243.00
2023-04-25T10:35:26.047Z,98248.00
2023-04-25T10:38:17.327Z,98253.00
2023-04-25T10:41:07.267Z,98248.00
2023-04-25T10:43:45.846Z,98250.00
2023-04-25T10:46:28.745Z,98251.00
2023-04-25T10:49:04.034Z,98254.00
2023-04-25T10:51:51.633Z,98249.00
2023-04-25T10:54:27.989Z,98254.00
2023-04-25T10:56:57.363Z,98260.00
2023-04-25T10:59:30.278Z,98263.00
2023-04-25T11:01:59.781Z,98274.00
2023-04-25T11:04:37.918Z,98283.00
2023-04-25T11:07:31.812Z,98279.00
2023-04-25T11:10:05.798Z,98288.00
2023-04-25T11:12:35.485Z,98307.00
2023-04-25T11:15:09.889Z,98307.00
2023-04-25T11:17:41.444Z,98316.00
2023-04-25T11:20:13.403Z,98319.00
2023-04-25T11:22:43.968Z,98312.00
2023-04-25T11:25:16.235Z,98319.00
2023-04-25T11:28:00.703Z,98334.00
2023-04-25T11:30:32.463Z,98337.00
2023-04-25T11:33:01.996Z,98339.00
2023-04-25T11:35:31.501Z,98337.00
2023-04-25T11:38:01.011Z,98338.00
2023-04-25T11:40:32.501Z,98340.00
2023-04-25T11:43:04.113Z,98339.00
2023-04-25T11:45:33.454Z,98338.00
2023-04-25T11:48:05.792Z,98334.00
2023-04-25T11:50:35.128Z,98341.00
2023-04-25T11:53:05.017Z,98353.00
2023-04-25T11:55:34.490Z,98362.00
2023-04-25T11:58:05.594Z,98363.00
2023-04-25T12:00:34.985Z,98368.00
2023-04-25T12:03:04.904Z,98366.00
2023-04-25T12:05:35.694Z,98370.00
2023-04-25T12:08:23.017Z,98377.00
2023-04-25T12:10:52.780Z,98377.00
2023-04-25T12:13:30.072Z,98382.00
2023-04-25T12:15:59.869Z,98380.00
2023-04-25T12:18:29.675Z,98375.00
2023-04-25T12:21:00.397Z,98365.00
2023-04-25T12:23:30.812Z,98366.00
2023-04-25T12:26:00.057Z,98364.00
2023-04-25T12:28:29.498Z,98359.00
2023-04-25T12:31:10.348Z,98365.00
2023-04-25T12:33:42.129Z,98363.00
2023-04-25T12:36:13.399Z,98367.00
2023-04-25T12:38:44.682Z,98373.00
2023-04-25T12:41:14.003Z,98374.00
2023-04-25T12:43:43.816Z,98378.00
2023-04-25T12:46:13.205Z,98376.00
2023-04-25T12:48:42.657Z,98360.00
2023-04-25T12:51:12.011Z,98365.00
2023-04-25T12:53:42.734Z,98369.00
2023-04-25T12:56:13.162Z,98368.00
2023-04-25T12:58:42.604Z,98375.00
2023-04-25T13:01:11.965Z,98365.00
2023-04-25T13:03:41.570Z,98375.00
2023-04-25T13:06:12.497Z,98379.00
2023-04-25T13:08:43.186Z,98379.00
2023-04-25T13:11:13.548Z,98378.00
2023-04-25T13:13:42.912Z,98391.00
2023-04-25T13:16:12.273Z,98392.00
2023-04-25T13:18:41.548Z,98385.00
2023-04-25T13:21:13.463Z,98387.00
2023-04-25T13:23:44.828Z,98388.00
2023-04-25T13:26:14.055Z,98390.00
2023-04-25T13:28:44.819Z,98386.00
2023-04-25T13:31:14.554Z,98389.00
2023-04-25T13:33:43.715Z,98390.00
2023-04-25T13:36:13.191Z,98387.00
2023-04-25T13:38:45.681Z,98383.00
2023-04-25T13:41:19.850Z,98393.00
2023-04-25T13:43:50.214Z,98396.00
2023-04-25T13:46:44.691Z,98414.00
2023-04-25T13:49:16.157Z,98411.00
2023-04-25T13:51:45.394Z,98418.00
2023-04-25T13:54:14.803Z,98424.00
2023-04-25T13:56:44.383Z,98428.00
2023-04-25T13:59:13.715Z,98432.00
2023-04-25T14:01:46.172Z,98442.00
2023-04-25T14:04:15.506Z,98446.00
2023-04-25T14:06:51.408Z,98464.00
2023-04-25T14:09:24.881Z,98470.00
2023-04-25T14:12:45.026Z,98465.00
2023-04-25T14:15:19.775Z,98470.00
2023-04-25T14:17:52.360Z,98477.00
2023-04-25T14:20:25.983Z,98476.00
2023-04-25T14:22:56.698Z,98485.00
2023-04-25T14:25:26.598Z,98492.00
2023-04-25T14:27:56.133Z,98496.00
2023-04-25T14:30:25.915Z,98506.00
2023-04-25T14:32:56.223Z,98521.00
2023-04-25T14:35:26.538Z,98530.00
2023-04-25T14:37:56.648Z,98535.00
2023-04-25T14:40:25.956Z,98534.00
2023-04-25T14:42:55.253Z,98544.00
2023-04-25T14:45:24.809Z,98542.00
2023-04-25T14:47:54.420Z,98545.00
2023-04-25T14:50:23.907Z,98540.00
2023-04-25T14:52:55.699Z,98530.00
2023-04-25T14:55:24.984Z,98531.00
2023-04-25T14:57:58.574Z,98550.00
2023-04-25T15:00:28.760Z,98552.00
2023-04-25T15:02:59.220Z,98560.00
2023-04-25T15:05:29.177Z,98568.00
2023-04-25T15:07:58.740Z,98558.00
2023-04-25T15:10:28.214Z,98567.00
2023-04-25T15:12:57.612Z,98571.00
2023-04-25T15:15:27.286Z,98563.00
2023-04-25T15:17:59.307Z,98552.00
2023-04-25T15:20:29.657Z,98552.00
2023-04-25T15:23:00.036Z,98556.00
2023-04-25T15:25:30.526Z,98564.00
2023-04-25T15:28:00.168Z,98570.00
2023-04-25T15:30:29.568Z,98564.00
2023-04-25T15:32:58.899Z,98567.00
2023-04-25T15:35:28.309Z,98570.00
2023-04-25T15:37:57.561Z,98574.00
2023-04-25T15:40:26.933Z,98580.00
2023-04-25T15:42:56.875Z,98598.00
2023-04-25T15:45:28.166Z,98594.00
2023-04-25T15:47:58.678Z,98588.00
2023-04-25T15:50:28.355Z,98596.00
2023-04-25T15:52:58.940Z,98600.00
2023-04-25T15:55:29.171Z,98607.00
2023-04-25T15:57:58.337Z,98644.00
2023-04-25T16:00:27.817Z,98643.00
2023-04-25T16:02:57.316Z,98637.00
2023-04-25T16:05:26.609Z,98633.00
2023-04-25T16:07:56.514Z,98633.00
2023-04-25T16:10:26.041Z,98629.00
2023-04-25T16:12:55.337Z,98635.00
2023-04-25T16:15:24.724Z,98638.00
2023-04-25T16:17:54.188Z,98636.00
2023-04-25T16:20:24.018Z,98644.00
2023-04-25T16:22:53.327Z,98642.00
2023-04-25T16:25:23.096Z,98649.00
2023-04-25T16:27:52.901Z,98649.00
2023-04-25T16:30:22.187Z,98646.00
2023-04-25T16:32:51.588Z,98647.00
2023-04-25T16:35:21.022Z,98652.00
2023-04-25T16:37:50.288Z,98641.00
2023-04-25T16:40:19.771Z,98636.00
2023-04-25T16:42:49.046Z,98641.00
2023-04-25T16:45:21.182Z,98631.00
2023-04-25T16:47:50.585Z,98627.00
2023-04-25T16:50:21.838Z,98626.00
2023-04-25T16:52:52.105Z,98630.00
2023-04-25T16:55:21.601Z,98625.00
2023-04-25T16:57:50.932Z,98620.00
2023-04-25T17:00:20.720Z,98622.00
2023-04-25T17:02:50.271Z,98613.00
2023-04-25T17:05:19.888Z,98616.00
2023-04-25T17:07:49.206Z,98612.00
2023-04-25T17:10:18.949Z,98616.00
2023-04-25T17:12:48.792Z,98611.00
2023-04-25T17:15:18.320Z,98607.00
2023-04-25T17:17:47.677Z,98602.00
2023-04-25T17:20:17.061Z,98600.00
2023-04-25T17:22:47.054Z,98595.00
2023-04-25T17:25:16.550Z,98570.00
2023-04-25T17:27:45.868Z,98567.00
2023-04-25T17:30:15.474Z,98570.00
2023-04-25T17:32:44.885Z,98573.00
2023-04-25T17:35:14.702Z,98567.00
2023-04-25T17:37:44.878Z,98568.00
2023-04-25T17:40:14.524Z,98558.00
2023-04-25T17:42:44.265Z,98551.00
2023-04-25T17:45:14.784Z,98558.00
2023-04-25T17:47:44.122Z,98557.00
2023-04-25T17:50:13.887Z,98548.00
2023-04-25T17:52:45.768Z,98543.00
2023-04-25T17:55:15.476Z,98535.00
2023-04-25T17:57:44.760Z,98534.00
2023-04-25T18:00:14.886Z,98526.00
2023-04-25T18:02:46.247Z,98520.00
2023-04-25T18:05:16.685Z,98525.00
2023-04-25T18:07:46.116Z,98518.00
2023-04-25T18:10:17.485Z,98521.00
2023-04-25T18:12:46.765Z,98517.00
2023-04-25T18:15:15.943Z,98514.00
2023-04-25T18:17:45.246Z,98510.00
2023-04-25T18:20:17.419Z,98494.00
2023-04-25T18:22:47.976Z,98499.00
2023-04-25T18:25:17.266Z,98493.00
2023-04-25T18:27:46.983Z,98495.00
2023-04-25T18:30:16.754Z,98496.00
2023-04-25T18:32:46.008Z,98490.00
2023-04-25T18:35:15.257Z,98484.00
2023-04-25T18:37:44.570Z,98487.00
2023-04-25T18:40:16.577Z,98479.00
2023-04-25T18:42:45.885Z,98485.00
2023-04-25T18:45:15.322Z,98485.00
2023-04-25T18:47:44.990Z,98486.00
2023-04-25T18:50:14.323Z,98484.00
2023-04-25T18:52:44.173Z,98489.00
2023-04-25T18:55:13.627Z,98495.00
2023-04-25T18:57:43.116Z,98489.00
2023-04-25T19:00:13.315Z,98493.00
2023-04-25T19:02:43.007Z,98500.00
2023-04-25T19:05:13.139Z,98499.00
2023-04-25T19:07:42.477Z,98490.00
2023-04-25T19:10:12.498Z,98492.00
2023-04-25T19:12:41.810Z,98490.00
2023-04-25T19:15:11.985Z,98492.00
2023-04-25T19:17:41.152Z,98497.00
2023-04-25T19:20:12.117Z,98507.00
2023-04-25T19:22:41.461Z,98500.00
2023-04-25T19:25:12.136Z,98511.00
2023-04-25T19:27:41.577Z,98513.00
2023-04-25T19:30:11.664Z,98505.00
2023-04-25T19:32:41.290Z,98498.00
2023-04-25T19:35:11.890Z,98497.00
2023-04-25T19:37:47.054Z,98491.00
2023-04-25T19:40:18.970Z,98491.00
2023-04-25T19:42:48.720Z,98494.00
2023-04-25T19:45:18.007Z,98490.00
2023-04-25T19:47:47.286Z,98490.00
2023-04-25T19:50:16.950Z,98495.00
2023-04-25T19:52:46.310Z,98494.00
2023-04-25T19:55:15.851Z,98483.00
2023-04-25T19:57:45.049Z,98478.00
2023-04-25T20:00:19.265Z,98477.00
2023-04-25T20:02:49.454Z,98479.00
2023-04-25T20:05:19.840Z,98485.00
2023-04-25T20:07:49.277Z,98485.00
2023-04-25T20:10:19.266Z,98491.00
2023-04-25T20:12:48.674Z,98491.00
2023-04-25T20:15:20.029Z,98493.00
2023-04-25T20:17:49.540Z,98497.00
2023-04-25T20:20:19.686Z,98501.00
2023-04-25T20:22:49.119Z,98501.00
2023-04-25T20:25:18.660Z,98499.00
2023-04-25T20:27:48.565Z,98506.00
2023-04-25T20:30:18.190Z,98511.00
2023-04-25T20:32:47.675Z,98504.00
2023-04-25T20:35:18.997Z,98514.00
2023-04-25T20:37:48.364Z,98517.00
2023-04-25T20:40:18.045Z,98528.00
2023-04-25T20:42:47.399Z,98526.00
2023-04-25T20:45:17.493Z,98535.00
2023-04-25T20:47:47.618Z,98528.00
2023-04-25T20:50:17.984Z,98539.00
2023-04-25T20:52:47.250Z,98541.00
2023-04-25T20:55:16.546Z,98552.00
2023-04-25T20:57:45.845Z,98560.00
2023-04-25T21:00:28.254Z,98566.00
2023-04-25T21:02:58.653Z,98569.00
2023-04-25T21:05:28.377Z,98567.00
2023-04-25T21:07:58.568Z,98568.00
2023-04-25T21:10:27.851Z,98570.00
2023-04-25T21:12:57.670Z,98586.00
2023-04-25T21:15:27.710Z,98593.00
2023-04-25T21:17:57.091Z,98598.00
2023-04-25T21:20:26.650Z,98600.00
2023-04-25T21:22:56.350Z,98610.00
2023-04-25T21:25:32.065Z,98610.00
2023-04-25T21:28:03.332Z,98615.00
2023-04-25T21:30:33.720Z,98610.00
2023-04-25T21:33:05.027Z,98613.00
2023-04-25T21:35:34.392Z,98618.00
2023-04-25T21:38:03.756Z,98620.00
2023-04-25T21:40:33.111Z,98616.00
2023-04-25T21:43:02.939Z,98621.00
2023-04-25T21:45:32.754Z,98630.00
2023-04-25T21:48:02.357Z,98632.00
2023-04-25T21:50:31.734Z,98632.00
2023-04-25T21:53:01.219Z,98642.00
2023-04-25T21:55:30.712Z,98647.00
2023-04-25T21:58:00.015Z,98638.00
2023-04-25T22:00:29.355Z,98635.00
2023-04-25T22:03:01.013Z,98634.00
2023-04-25T22:05:30.910Z,98633.00
2023-04-25T22:08:00.175Z,98632.00
2023-04-25T22:10:29.483Z,98642.00
2023-04-25T22:12:59.464Z,98645.00
2023-04-25T22:15:30.475Z,98647.00
2023-04-25T22:18:00.360Z,98637.00
2023-04-25T22:20:29.696Z,98646.00
2023-04-25T22:22:59.496Z,98652.00
2023-04-25T22:25:28.943Z,98646.00
2023-04-25T22:27:58.531Z,98652.00
2023-04-25T22:30:30.611Z,98655.00
2023-04-25T22:33:00.584Z,98659.00
2023-04-25T22:35:29.871Z,98665.00
2023-04-25T22:37:59.213Z,98664.00
2023-04-25T22:40:28.780Z,98670.00
2023-04-25T22:42:58.860Z,98667.00
2023-04-25T22:45:28.378Z,98667.00
2023-04-25T22:47:57.777Z,98680.00
2023-04-25T22:50:28.284Z,98685.00
2023-04-25T22:52:57.615Z,98690.00
2023-04-25T22:55:27.866Z,98704.00
2023-04-25T22:57:57.395Z,98716.00
2023-04-25T23:00:28.601Z,98724.00
2023-04-25T23:02:58.071Z,98723.00
2023-04-25T23:05:28.458Z,98719.00
2023-04-25T23:07:58.802Z,98719.00
2023-04-25T23:10:29.688Z,98723.00
2023-04-25T23:13:01.424Z,98721.00
2023-04-25T23:15:35.771Z,98728.00
2023-04-25T23:18:05.671Z,98736.00
2023-04-25T23:20:35.237Z,98735.00
2023-04-25T23:23:04.833Z,98737.00
2023-04-25T23:25:34.259Z,98745.00
2023-04-25T23:28:03.554Z,98742.00
2023-04-25T23:30:32.951Z,98753.00
2023-04-25T23:33:02.360Z,98758.00
2023-04-25T23:35:31.754Z,98760.00
2023-04-25T23:38:01.037Z,98774.00
2023-04-25T23:40:32.697Z,98775.00
2023-04-25T23:43:04.431Z,98778.00
2023-04-25T23:45:33.990Z,98778.00
2023-04-25T23:48:03.954Z,98793.00
2023-04-25T23:50:33.502Z,98794.00
2023-04-25T23:53:03.153Z,98803.00
2023-04-25T23:55:32.949Z,98810.00
2023-04-25T23:58:02.531Z,98818.00
